createdAt,value
2022-09-18T00:01:59.000Z,86.23
2022-09-18T00:07:01.699Z,86.44
2022-09-18T00:12:04.489Z,86.46
2022-09-18T00:17:09.269Z,86.83
2022-09-18T00:22:12.014Z,86.94
2022-09-18T00:27:14.629Z,87.76
2022-09-18T00:32:18.570Z,88.26
2022-09-18T00:37:21.394Z,87.79
2022-09-18T00:42:24.082Z,87.67
2022-09-18T00:47:33.697Z,87.91
2022-09-18T00:52:43.377Z,88.09
2022-09-18T00:57:49.126Z,88.08
2022-09-18T01:02:53.902Z,88.05
2022-09-18T01:08:04.242Z,88.18
2022-09-18T01:13:12.407Z,88.10
2022-09-18T01:18:22.624Z,88.64
2022-09-18T01:23:59.879Z,88.87
2022-09-18T01:29:07.596Z,88.62
2022-09-18T01:34:14.816Z,89.00
2022-09-18T01:39:21.272Z,88.92
2022-09-18T01:44:29.248Z,89.13
2022-09-18T01:49:39.993Z,89.35
2022-09-18T01:54:44.549Z,89.09
2022-09-18T01:59:51.767Z,88.77
2022-09-18T02:04:59.700Z,88.99
2022-09-18T02:10:02.731Z,89.07
2022-09-18T02:15:11.645Z,89.01
2022-09-18T02:20:24.110Z,88.71
2022-09-18T02:25:31.291Z,88.95
2022-09-18T02:30:35.640Z,88.57
2022-09-18T02:35:41.719Z,88.76
2022-09-18T02:40:51.180Z,88.76
2022-09-18T02:46:01.071Z,88.54
2022-09-18T02:51:09.599Z,88.17
2022-09-18T02:56:15.965Z,87.90
2022-09-18T03:01:23.325Z,87.87
2022-09-18T03:06:26.368Z,87.76
2022-09-18T03:11:29.082Z,87.74
2022-09-18T03:16:33.094Z,87.80
2022-09-18T03:21:35.797Z,87.52
2022-09-18T03:26:41.202Z,87.30
2022-09-18T03:31:45.418Z,87.07
2022-09-18T03:36:49.254Z,87.01
2022-09-18T03:41:53.267Z,86.87
2022-09-18T03:46:57.973Z,86.74
2022-09-18T03:52:00.760Z,86.84
2022-09-18T03:57:08.158Z,86.87
2022-09-18T04:02:21.814Z,86.88
2022-09-18T04:07:43.074Z,86.73
2022-09-18T04:13:04.607Z,86.96
2022-09-18T04:18:12.100Z,87.06
2022-09-18T04:23:15.268Z,86.68
2022-09-18T04:28:17.927Z,86.67
2022-09-18T04:33:27.555Z,86.52
2022-09-18T04:38:30.184Z,86.74
2022-09-18T04:43:33.250Z,86.50
2022-09-18T04:48:37.523Z,86.70
2022-09-18T04:53:41.452Z,86.47
2022-09-18T04:58:45.397Z,86.30
2022-09-18T05:03:49.791Z,86.25
2022-09-18T05:09:01.717Z,86.15
2022-09-18T05:14:04.590Z,86.14
2022-09-18T05:19:10.657Z,86.01
2022-09-18T05:24:14.037Z,85.67
2022-09-18T05:29:17.691Z,85.61
2022-09-18T05:34:21.879Z,85.36
2022-09-18T05:39:25.422Z,84.96
2022-09-18T05:44:33.077Z,85.26
2022-09-18T05:49:37.388Z,85.12
2022-09-18T05:54:42.485Z,84.79
2022-09-18T05:59:45.988Z,84.31
2022-09-18T06:04:50.014Z,84.46
2022-09-18T06:09:53.290Z,84.08
2022-09-18T06:14:55.990Z,84.18
2022-09-18T06:20:02.438Z,84.29
2022-09-18T06:25:06.596Z,83.98
2022-09-18T06:30:11.442Z,83.76
2022-09-18T06:35:15.754Z,83.85
2022-09-18T06:40:18.932Z,84.01
2022-09-18T06:45:40.577Z,83.79
2022-09-18T06:50:44.742Z,83.52
2022-09-18T06:55:48.899Z,83.19
2022-09-18T07:00:51.636Z,83.48
2022-09-18T07:06:03.283Z,83.32
2022-09-18T07:11:19.757Z,83.15
2022-09-18T07:16:23.065Z,82.52
2022-09-18T07:21:27.487Z,82.40
2022-09-18T07:26:30.110Z,81.89
2022-09-18T07:31:32.897Z,81.84
2022-09-18T07:36:40.164Z,81.85
2022-09-18T07:41:43.615Z,81.52
2022-09-18T07:46:46.981Z,81.22
2022-09-18T07:51:51.237Z,80.49
2022-09-18T07:56:54.544Z,79.94
2022-09-18T08:02:00.420Z,79.23
2022-09-18T08:07:07.987Z,79.06
2022-09-18T08:12:36.642Z,79.12
2022-09-18T08:18:02.575Z,79.08
2022-09-18T08:23:20.207Z,78.75
2022-09-18T08:28:23.122Z,78.50
2022-09-18T08:33:31.197Z,78.33
2022-09-18T08:38:36.801Z,77.80
2022-09-18T08:44:02.794Z,77.22
2022-09-18T08:49:15.964Z,76.93
2022-09-18T08:54:27.515Z,76.86
2022-09-18T09:00:02.541Z,76.86
2022-09-18T09:05:09.665Z,76.86
2022-09-18T09:10:32.409Z,76.25
2022-09-18T09:15:38.962Z,76.11
2022-09-18T09:20:51.440Z,76.26
2022-09-18T09:26:03.155Z,75.52
2022-09-18T09:31:26.055Z,75.46
2022-09-18T09:36:54.810Z,74.81
2022-09-18T09:42:00.134Z,74.29
2022-09-18T09:47:21.221Z,73.70
2022-09-18T09:52:25.753Z,73.74
2022-09-18T09:57:41.012Z,72.73
2022-09-18T10:02:57.324Z,72.48
2022-09-18T10:08:07.146Z,72.45
2022-09-18T10:13:16.426Z,72.46
2022-09-18T10:18:22.813Z,72.45
2022-09-18T10:23:33.956Z,71.93
2022-09-18T10:28:39.538Z,71.17
2022-09-18T10:33:43.994Z,70.55
2022-09-18T10:38:54.162Z,70.90
2022-09-18T10:44:27.154Z,70.28
2022-09-18T10:49:41.759Z,70.24
2022-09-18T10:54:58.754Z,71.04
2022-09-18T11:00:05.776Z,70.23
2022-09-18T11:05:16.922Z,70.37
2022-09-18T11:10:22.660Z,68.30
2022-09-18T11:15:29.911Z,66.84
2022-09-18T11:20:34.844Z,65.60
2022-09-18T11:25:45.735Z,59.60
2022-09-18T11:31:01.016Z,65.67
2022-09-18T11:36:05.864Z,67.99
2022-09-18T11:41:11.761Z,67.46
2022-09-18T11:46:26.462Z,68.28
2022-09-18T11:51:46.627Z,64.72
2022-09-18T11:56:51.777Z,61.90
2022-09-18T12:02:02.657Z,64.09
2022-09-18T12:07:12.994Z,59.78
2022-09-18T12:12:19.846Z,62.26
2022-09-18T12:17:29.086Z,67.08
2022-09-18T12:22:41.153Z,69.83
2022-09-18T12:27:52.782Z,68.81
2022-09-18T12:33:17.928Z,70.02
2022-09-18T12:38:35.040Z,71.50
2022-09-18T12:44:22.159Z,72.06
2022-09-18T12:49:46.911Z,72.33
2022-09-18T12:55:01.706Z,72.52
2022-09-18T13:00:08.555Z,72.48
2022-09-18T13:05:17.781Z,72.55
2022-09-18T13:10:23.278Z,74.65
2022-09-18T13:15:28.544Z,78.40
2022-09-18T13:20:36.208Z,80.76
2022-09-18T13:25:40.563Z,80.93
2022-09-18T13:30:43.404Z,81.55
2022-09-18T13:35:53.851Z,82.01
2022-09-18T13:41:00.482Z,82.48
2022-09-18T13:46:07.066Z,83.33
2022-09-18T13:51:20.155Z,84.19
2022-09-18T13:56:57.652Z,84.76
2022-09-18T14:02:02.658Z,85.84
2022-09-18T14:07:45.916Z,86.31
2022-09-18T14:13:24.027Z,86.41
2022-09-18T14:18:29.132Z,86.12
2022-09-18T14:24:11.703Z,86.80
2022-09-18T14:29:18.669Z,86.84
2022-09-18T14:34:24.391Z,87.21
2022-09-18T14:39:29.414Z,87.45
2022-09-18T14:44:34.511Z,87.48
2022-09-18T14:49:42.092Z,87.63
2022-09-18T14:54:47.563Z,87.53
2022-09-18T14:59:53.442Z,87.45
2022-09-18T15:04:56.387Z,86.34
2022-09-18T15:10:02.654Z,85.70
2022-09-18T15:20:36.736Z,85.44
2022-09-18T15:25:40.602Z,85.46
2022-09-18T15:30:43.671Z,85.45
2022-09-18T15:35:52.270Z,85.61
2022-09-18T15:40:55.660Z,85.49
2022-09-18T15:46:03.202Z,85.48
2022-09-18T15:51:13.295Z,85.60
2022-09-18T15:56:21.025Z,85.43
2022-09-18T16:01:29.535Z,85.47
2022-09-18T16:06:42.657Z,85.51
2022-09-18T16:11:46.933Z,85.20
2022-09-18T16:16:49.578Z,85.27
2022-09-18T16:21:53.664Z,84.95
2022-09-18T16:27:05.147Z,84.89
2022-09-18T16:32:10.192Z,84.63
2022-09-18T16:37:17.015Z,84.58
2022-09-18T16:42:20.133Z,84.53
2022-09-18T16:47:22.760Z,84.64
2022-09-18T16:52:26.931Z,84.25
2022-09-18T16:57:30.643Z,84.16
2022-09-18T17:02:33.870Z,84.17
2022-09-18T17:07:37.987Z,84.14
2022-09-18T17:12:41.481Z,83.98
2022-09-18T17:17:45.589Z,84.03
2022-09-18T17:22:50.612Z,84.23
2022-09-18T17:27:53.184Z,84.61
2022-09-18T17:32:55.805Z,84.90
2022-09-18T17:38:00.813Z,84.99
2022-09-18T17:43:03.907Z,85.08
2022-09-18T17:48:06.609Z,85.29
2022-09-18T17:53:11.090Z,85.54
2022-09-18T17:58:13.968Z,85.71
2022-09-18T18:03:17.284Z,85.55
2022-09-18T18:08:21.317Z,85.35
2022-09-18T18:13:24.125Z,85.23
2022-09-18T18:18:27.286Z,85.13
2022-09-18T18:23:31.399Z,85.01
2022-09-18T18:28:35.100Z,84.94
2022-09-18T18:33:38.226Z,85.02
2022-09-18T18:38:42.986Z,85.17
2022-09-18T18:43:46.005Z,85.37
2022-09-18T18:48:49.303Z,85.40
2022-09-18T18:53:55.206Z,85.82
2022-09-18T18:58:58.762Z,86.02
2022-09-18T19:04:03.401Z,86.41
2022-09-18T19:09:09.288Z,86.41
2022-09-18T19:14:14.145Z,86.84
2022-09-18T19:19:18.590Z,87.08
2022-09-18T19:24:22.889Z,86.58
2022-09-18T19:29:25.630Z,87.01
2022-09-18T19:34:28.306Z,86.87
2022-09-18T19:39:32.372Z,86.71
2022-09-18T19:44:37.613Z,86.77
2022-09-18T19:49:40.492Z,86.73
2022-09-18T19:54:44.560Z,86.58
2022-09-18T19:59:47.703Z,86.26
2022-09-18T20:04:50.364Z,85.78
2022-09-18T20:09:54.479Z,85.81
2022-09-18T20:14:57.157Z,85.36
2022-09-18T20:20:00.376Z,85.22
2022-09-18T20:25:05.215Z,85.20
2022-09-18T20:30:10.713Z,84.84
2022-09-18T20:35:13.446Z,84.84
2022-09-18T20:40:17.750Z,84.53
2022-09-18T20:45:20.566Z,84.70
2022-09-18T20:50:27.676Z,84.57
2022-09-18T20:55:31.668Z,84.40
2022-09-18T21:00:34.464Z,84.51
2022-09-18T21:05:37.658Z,84.24
2022-09-18T21:10:46.708Z,84.27
2022-09-18T21:15:49.407Z,84.25
2022-09-18T21:21:02.356Z,84.14
2022-09-18T21:26:17.397Z,83.99
2022-09-18T21:31:20.643Z,84.00
2022-09-18T21:36:24.521Z,83.94
2022-09-18T21:41:28.509Z,84.53
2022-09-18T21:46:31.121Z,84.75
2022-09-18T21:51:34.324Z,84.75
2022-09-18T21:56:38.273Z,84.88
2022-09-18T22:01:42.687Z,85.40
2022-09-18T22:06:46.573Z,85.29
2022-09-18T22:11:51.370Z,85.61
2022-09-18T22:16:54.141Z,85.80
2022-09-18T22:21:57.252Z,85.53
2022-09-18T22:27:02.484Z,86.07
2022-09-18T22:32:05.976Z,86.21
2022-09-18T22:37:08.852Z,86.02
2022-09-18T22:42:18.030Z,86.53
2022-09-18T22:47:20.613Z,86.70
2022-09-18T22:52:23.261Z,86.62
2022-09-18T22:57:27.343Z,86.92
2022-09-18T23:02:30.021Z,87.69
2022-09-18T23:07:32.626Z,87.96
2022-09-18T23:12:36.650Z,87.90
2022-09-18T23:17:39.303Z,87.90
2022-09-18T23:22:41.890Z,88.18
2022-09-18T23:27:45.826Z,88.29
2022-09-18T23:32:48.771Z,88.04
2022-09-18T23:37:51.360Z,88.22
2022-09-18T23:42:55.455Z,87.86
2022-09-18T23:47:58.061Z,88.05
2022-09-18T23:53:00.699Z,88.41
2022-09-18T23:58:04.819Z,88.72
